Time;durP1;ratioP1;P1;durP2;ratioP2;P2;SDS_P1;SDS_P2;PMS_P1;PMS_P2;Temp;Humidity;BMP_temperature;BMP_pressure;BME280_temperature;BME280_humidity;BME280_pressure;Samples;Min_cycle;Max_cycle;Signal;HPM_P1;HPM_P2
2023/07/02 00:01:47;;;;;;;0.80;0.80;;;;;;;;;;4969017;28;20026;-76
2023/07/02 00:04:16;;;;;;;0.50;0.50;;;;;;;;;;4971351;28;20035;-76
2023/07/02 00:06:42;;;;;;;1.10;0.65;;;;;;;;;;4970313;28;20051;-76
2023/07/02 00:09:10;;;;;;;0.65;0.65;;;;;;;;;;4970624;28;20060;-76
2023/07/02 00:11:36;;;;;;;0.77;0.70;;;;;;;;;;4961455;28;20027;-75
2023/07/02 00:14:02;;;;;;;0.68;0.50;;;;;;;;;;4969160;28;20023;-76
2023/07/02 00:16:27;;;;;;;0.75;0.60;;;;;;;;;;4967702;28;20031;-75
2023/07/02 00:18:53;;;;;;;0.95;0.80;;;;;;;;;;4963293;28;20082;-76
2023/07/02 00:21:20;;;;;;;0.70;0.70;;;;;;;;;;4969675;28;20030;-75
2023/07/02 00:23:47;;;;;;;0.50;0.50;;;;;;;;;;4968247;28;20426;-76
2023/07/02 00:26:13;;;;;;;0.82;0.57;;;;;;;;;;4968584;28;20118;-76
2023/07/02 00:28:39;;;;;;;1.48;0.63;;;;;;;;;;4966858;28;20030;-76
2023/07/02 00:31:04;;;;;;;0.70;0.70;;;;;;;;;;4970847;28;20081;-76
2023/07/02 00:33:32;;;;;;;0.60;0.60;;;;;;;;;;4966519;28;20038;-76
2023/07/02 00:36:00;;;;;;;0.90;0.57;;;;;;;;;;4980705;28;20055;-75
2023/07/02 00:38:26;;;;;;;0.70;0.70;;;;;;;;;;4976521;28;20022;-76
2023/07/02 00:40:52;;;;;;;0.50;0.50;;;;;;;;;;4968242;28;20035;-76
2023/07/02 00:43:18;;;;;;;0.60;0.60;;;;;;;;;;4966345;28;20031;-76
2023/07/02 00:45:45;;;;;;;0.63;0.50;;;;;;;;;;4967129;28;20126;-76
2023/07/02 00:48:11;;;;;;;0.52;0.52;;;;;;;;;;4966756;28;20039;-76
2023/07/02 00:50:38;;;;;;;0.50;0.50;;;;;;;;;;4969511;28;20539;-76
2023/07/02 00:53:04;;;;;;;1.60;1.00;;;;;;;;;;4967028;28;20027;-76
2023/07/02 00:55:30;;;;;;;0.60;0.60;;;;;;;;;;4968529;28;20022;-76
2023/07/02 00:57:56;;;;;;;0.80;0.80;;;;;;;;;;4968121;28;20041;-76
2023/07/02 01:00:22;;;;;;;0.60;0.60;;;;;;;;;;4968671;28;20046;-76
2023/07/02 01:02:58;;;;;;;0.60;0.60;;;;;;;;;;4965190;28;20057;-75
2023/07/02 01:05:25;;;;;;;0.63;0.50;;;;;;;;;;4968068;28;20520;-76
2023/07/02 01:07:51;;;;;;;0.80;0.70;;;;;;;;;;4968497;28;20043;-76
2023/07/02 01:10:17;;;;;;;0.60;0.60;;;;;;;;;;4969061;28;20026;-76
2023/07/02 01:12:44;;;;;;;0.70;0.60;;;;;;;;;;4966344;28;20023;-76
2023/07/02 01:15:10;;;;;;;0.40;0.40;;;;;;;;;;4967123;28;20122;-76
2023/07/02 01:17:42;;;;;;;0.68;0.68;;;;;;;;;;4969981;28;20037;-76
2023/07/02 01:20:12;;;;;;;0.60;0.60;;;;;;;;;;4966037;28;20038;-76
2023/07/02 01:22:38;;;;;;;0.75;0.50;;;;;;;;;;4967526;28;20055;-76
2023/07/02 01:25:05;;;;;;;0.57;0.50;;;;;;;;;;4977349;28;20050;-76
2023/07/02 01:27:32;;;;;;;0.90;0.70;;;;;;;;;;4970697;28;20035;-75
2023/07/02 01:29:58;;;;;;;0.77;0.60;;;;;;;;;;4967963;28;20022;-76
2023/07/02 01:32:24;;;;;;;1.25;0.70;;;;;;;;;;4969948;28;21296;-76
2023/07/02 01:34:53;;;;;;;1.02;0.80;;;;;;;;;;4975699;28;20023;-76
2023/07/02 01:37:19;;;;;;;0.57;0.50;;;;;;;;;;4963482;28;20316;-75
2023/07/02 01:39:45;;;;;;;1.08;0.70;;;;;;;;;;4967971;28;20498;-76
2023/07/02 01:42:12;;;;;;;0.70;0.70;;;;;;;;;;4965642;28;20038;-76
2023/07/02 01:44:38;;;;;;;0.55;0.52;;;;;;;;;;4965776;28;20026;-76
2023/07/02 01:47:05;;;;;;;0.73;0.73;;;;;;;;;;4964879;28;20042;-76
2023/07/02 01:49:32;;;;;;;0.70;0.68;;;;;;;;;;4965777;28;20019;-76
2023/07/02 01:51:58;;;;;;;1.13;1.02;;;;;;;;;;4967977;28;20653;-76
2023/07/02 01:54:26;;;;;;;0.75;0.75;;;;;;;;;;4967766;28;20065;-76
2023/07/02 01:56:52;;;;;;;0.80;0.80;;;;;;;;;;4963566;28;20030;-77
2023/07/02 01:59:18;;;;;;;0.88;0.60;;;;;;;;;;4966323;28;20029;-77
2023/07/02 02:01:44;;;;;;;2.72;1.42;;;;;;;;;;4967296;28;20034;-77
2023/07/02 02:04:11;;;;;;;0.93;0.80;;;;;;;;;;4966816;28;20038;-76
2023/07/02 02:06:38;;;;;;;0.98;0.85;;;;;;;;;;4969205;28;20524;-76
2023/07/02 02:09:04;;;;;;;0.70;0.68;;;;;;;;;;4965058;28;20030;-77
2023/07/02 02:11:32;;;;;;;1.30;0.98;;;;;;;;;;4964945;28;20070;-76
2023/07/02 02:13:58;;;;;;;0.73;0.73;;;;;;;;;;4967497;28;20037;-76
2023/07/02 02:16:24;;;;;;;0.70;0.70;;;;;;;;;;4965287;28;20031;-76
2023/07/02 02:18:51;;;;;;;1.00;0.75;;;;;;;;;;4966593;28;20027;-76
2023/07/02 02:21:17;;;;;;;1.67;1.02;;;;;;;;;;4966495;28;20336;-76
2023/07/02 02:23:46;;;;;;;0.60;0.60;;;;;;;;;;4967373;28;20033;-76
2023/07/02 02:26:12;;;;;;;0.98;0.73;;;;;;;;;;4966075;28;20090;-76
2023/07/02 02:28:38;;;;;;;1.60;1.45;;;;;;;;;;4966633;28;20030;-77
2023/07/02 02:31:04;;;;;;;0.85;0.77;;;;;;;;;;4966940;28;20027;-76
2023/07/02 02:33:30;;;;;;;0.65;0.65;;;;;;;;;;4967594;28;20115;-77
2023/07/02 02:35:56;;;;;;;1.00;0.88;;;;;;;;;;4966545;28;20105;-76
2023/07/02 02:38:22;;;;;;;2.38;0.98;;;;;;;;;;4966601;28;20034;-76
2023/07/02 02:40:48;;;;;;;1.00;0.90;;;;;;;;;;4966898;28;20050;-76
2023/07/02 02:43:16;;;;;;;0.70;0.70;;;;;;;;;;4966017;28;20323;-76
2023/07/02 02:45:42;;;;;;;0.80;0.80;;;;;;;;;;4965605;28;20034;-76
2023/07/02 02:48:08;;;;;;;0.88;0.75;;;;;;;;;;4964064;28;20043;-76
2023/07/02 02:50:34;;;;;;;0.73;0.73;;;;;;;;;;4966138;28;20030;-76
2023/07/02 02:53:00;;;;;;;0.50;0.50;;;;;;;;;;4966767;28;20500;-76
2023/07/02 02:55:27;;;;;;;1.00;0.82;;;;;;;;;;4965981;28;20014;-76
2023/07/02 02:57:54;;;;;;;0.60;0.60;;;;;;;;;;4968361;28;20023;-76
2023/07/02 03:00:19;;;;;;;0.85;0.85;;;;;;;;;;4966535;28;20030;-76
2023/07/02 03:02:45;;;;;;;2.28;0.60;;;;;;;;;;4965309;28;20442;-76
2023/07/02 03:05:12;;;;;;;0.65;0.65;;;;;;;;;;4965092;28;20527;-76
2023/07/02 03:07:38;;;;;;;0.80;0.80;;;;;;;;;;4966457;28;20046;-76
2023/07/02 03:10:05;;;;;;;3.63;0.90;;;;;;;;;;4964591;28;20025;-76
2023/07/02 03:12:31;;;;;;;0.63;0.63;;;;;;;;;;4966802;28;20042;-76
2023/07/02 03:14:57;;;;;;;0.75;0.75;;;;;;;;;;4966342;28;20050;-76
2023/07/02 03:17:23;;;;;;;0.95;0.80;;;;;;;;;;4966662;28;20015;-76
2023/07/02 03:19:49;;;;;;;0.80;0.80;;;;;;;;;;4967015;28;20046;-76
2023/07/02 03:22:15;;;;;;;0.80;0.80;;;;;;;;;;4963924;28;20031;-76
2023/07/02 03:24:41;;;;;;;2.45;0.80;;;;;;;;;;4966140;28;20011;-76
2023/07/02 03:27:07;;;;;;;0.80;0.70;;;;;;;;;;4965421;28;20037;-76
2023/07/02 03:29:34;;;;;;;0.90;0.90;;;;;;;;;;4966168;28;20439;-76
2023/07/02 03:32:00;;;;;;;1.75;1.20;;;;;;;;;;4966245;28;20049;-76
2023/07/02 03:34:26;;;;;;;0.82;0.80;;;;;;;;;;4966276;28;20038;-77
2023/07/02 03:36:52;;;;;;;1.20;1.05;;;;;;;;;;4966014;28;20022;-76
2023/07/02 03:39:18;;;;;;;0.82;0.80;;;;;;;;;;4965202;28;20089;-76
2023/07/02 03:41:44;;;;;;;0.90;0.90;;;;;;;;;;4966501;28;20027;-76
2023/07/02 03:44:10;;;;;;;0.70;0.70;;;;;;;;;;4965174;28;20054;-76
2023/07/02 03:46:36;;;;;;;1.08;0.80;;;;;;;;;;4964607;28;20394;-76
2023/07/02 03:49:05;;;;;;;0.73;0.73;;;;;;;;;;4965380;28;20031;-76
2023/07/02 03:51:32;;;;;;;1.08;0.98;;;;;;;;;;4965478;28;20105;-76
2023/07/02 03:53:59;;;;;;;1.08;0.98;;;;;;;;;;4964731;28;20474;-76
2023/07/02 03:56:26;;;;;;;0.60;0.60;;;;;;;;;;4965410;28;20031;-76
2023/07/02 03:58:52;;;;;;;1.13;0.90;;;;;;;;;;4971223;28;20026;-76
2023/07/02 04:01:18;;;;;;;1.20;1.05;;;;;;;;;;4971042;28;20038;-76
2023/07/02 04:03:52;;;;;;;0.63;0.63;;;;;;;;;;4968901;28;20039;-76
2023/07/02 04:06:18;;;;;;;1.02;0.90;;;;;;;;;;4970134;28;20410;-76
2023/07/02 04:08:44;;;;;;;0.93;0.80;;;;;;;;;;4970767;28;20042;-76
2023/07/02 04:11:10;;;;;;;0.85;0.85;;;;;;;;;;4970888;28;20031;-76
2023/07/02 04:13:36;;;;;;;0.70;0.70;;;;;;;;;;4970739;28;20031;-77
2023/07/02 04:16:02;;;;;;;1.02;0.93;;;;;;;;;;4971490;28;20743;-76
2023/07/02 04:18:29;;;;;;;1.08;0.98;;;;;;;;;;4970250;28;20039;-76
2023/07/02 04:20:55;;;;;;;0.70;0.70;;;;;;;;;;4970348;28;20054;-76
2023/07/02 04:23:21;;;;;;;0.82;0.80;;;;;;;;;;4966557;28;20489;-76
2023/07/02 04:25:47;;;;;;;1.25;0.77;;;;;;;;;;4968843;28;20066;-76
2023/07/02 04:28:13;;;;;;;1.08;0.88;;;;;;;;;;4966379;28;20682;-77
2023/07/02 04:30:39;;;;;;;0.77;0.77;;;;;;;;;;4969149;28;20057;-77
2023/07/02 04:33:08;;;;;;;0.80;0.73;;;;;;;;;;4969072;28;20027;-76
2023/07/02 04:35:37;;;;;;;1.02;0.93;;;;;;;;;;4969532;28;20011;-77
2023/07/02 04:38:03;;;;;;;1.13;0.95;;;;;;;;;;4967530;28;20027;-76
2023/07/02 04:40:29;;;;;;;0.90;0.77;;;;;;;;;;4967272;28;20054;-77
2023/07/02 04:42:57;;;;;;;0.98;0.88;;;;;;;;;;4970511;28;20062;-77
2023/07/02 04:45:24;;;;;;;0.60;0.57;;;;;;;;;;4965271;28;20053;-77
2023/07/02 04:47:51;;;;;;;0.93;0.80;;;;;;;;;;4968871;28;20431;-76
2023/07/02 04:50:19;;;;;;;0.73;0.73;;;;;;;;;;4966116;28;20035;-77
2023/07/02 04:52:45;;;;;;;0.60;0.60;;;;;;;;;;4967958;28;20524;-77
2023/07/02 04:55:12;;;;;;;0.80;0.80;;;;;;;;;;4968073;28;20585;-77
2023/07/02 04:57:38;;;;;;;0.88;0.80;;;;;;;;;;4967891;28;20022;-76
2023/07/02 05:00:06;;;;;;;0.73;0.73;;;;;;;;;;4967661;28;20101;-76
2023/07/02 05:02:31;;;;;;;0.95;0.90;;;;;;;;;;4968021;28;20034;-77
2023/07/02 05:04:57;;;;;;;0.90;0.90;;;;;;;;;;4969277;28;20090;-76
2023/07/02 05:07:23;;;;;;;0.70;0.70;;;;;;;;;;4963712;28;20047;-77
2023/07/02 05:09:52;;;;;;;1.38;1.15;;;;;;;;;;4963173;28;20395;-77
2023/07/02 05:12:18;;;;;;;0.80;0.80;;;;;;;;;;4968766;28;20031;-76
2023/07/02 05:14:44;;;;;;;1.40;1.17;;;;;;;;;;4966564;28;20053;-77
2023/07/02 05:17:10;;;;;;;1.42;1.23;;;;;;;;;;4970392;28;20035;-76
2023/07/02 05:19:36;;;;;;;0.75;0.75;;;;;;;;;;4967965;28;20046;-77
2023/07/02 05:22:02;;;;;;;1.60;1.27;;;;;;;;;;4969249;28;20034;-77
2023/07/02 05:24:28;;;;;;;0.70;0.70;;;;;;;;;;4969410;28;20887;-77
2023/07/02 05:26:54;;;;;;;1.27;0.98;;;;;;;;;;4967742;28;20041;-76
2023/07/02 05:29:20;;;;;;;0.70;0.70;;;;;;;;;;4969702;28;20082;-77
2023/07/02 05:31:46;;;;;;;0.88;0.88;;;;;;;;;;4967538;28;20023;-77
2023/07/02 05:34:12;;;;;;;0.82;0.80;;;;;;;;;;4966658;28;20159;-77
2023/07/02 05:36:38;;;;;;;1.00;0.90;;;;;;;;;;4970570;28;20129;-77
2023/07/02 05:39:04;;;;;;;1.27;1.08;;;;;;;;;;4964160;28;20038;-77
2023/07/02 05:41:30;;;;;;;0.60;0.60;;;;;;;;;;4969932;28;20050;-77
2023/07/02 05:43:59;;;;;;;1.77;0.90;;;;;;;;;;4968916;28;20482;-77
2023/07/02 05:46:25;;;;;;;0.88;0.88;;;;;;;;;;4968503;28;20034;-77
2023/07/02 05:48:51;;;;;;;0.80;0.80;;;;;;;;;;4966316;28;20035;-77
2023/07/02 05:51:24;;;;;;;0.80;0.80;;;;;;;;;;4966474;28;20278;-77
2023/07/02 05:53:51;;;;;;;1.08;0.88;;;;;;;;;;4967989;28;20026;-77
2023/07/02 05:56:17;;;;;;;1.35;1.00;;;;;;;;;;4968118;28;20102;-77
2023/07/02 05:58:43;;;;;;;0.70;0.70;;;;;;;;;;4969057;28;20079;-77
2023/07/02 06:01:09;;;;;;;0.60;0.60;;;;;;;;;;4968964;28;20054;-77
2023/07/02 06:03:35;;;;;;;0.75;0.70;;;;;;;;;;4969093;28;20129;-78
2023/07/02 06:06:01;;;;;;;0.80;0.75;;;;;;;;;;4969392;28;20074;-76
2023/07/02 06:08:27;;;;;;;0.88;0.75;;;;;;;;;;4968936;28;20451;-76
2023/07/02 06:10:53;;;;;;;2.03;0.88;;;;;;;;;;4965777;28;20140;-77
2023/07/02 06:13:19;;;;;;;1.05;0.90;;;;;;;;;;4963328;28;20138;-77
2023/07/02 06:15:46;;;;;;;0.75;0.75;;;;;;;;;;4965275;28;20031;-77
2023/07/02 06:18:12;;;;;;;1.05;0.85;;;;;;;;;;4964911;28;20030;-77
2023/07/02 06:20:38;;;;;;;0.63;0.57;;;;;;;;;;4961834;28;20036;-77
2023/07/02 06:23:04;;;;;;;1.13;1.02;;;;;;;;;;4968735;28;20053;-76
2023/07/02 06:25:30;;;;;;;1.63;0.98;;;;;;;;;;4965384;28;20030;-77
2023/07/02 06:27:58;;;;;;;1.05;0.90;;;;;;;;;;4965214;28;20023;-76
2023/07/02 06:30:24;;;;;;;1.08;0.98;;;;;;;;;;4965539;28;20025;-77
2023/07/02 06:32:50;;;;;;;1.23;1.00;;;;;;;;;;4968797;28;20108;-77
2023/07/02 06:35:16;;;;;;;1.10;1.00;;;;;;;;;;4967616;28;20475;-77
2023/07/02 06:37:42;;;;;;;1.15;0.82;;;;;;;;;;4964204;28;20103;-78
2023/07/02 06:40:08;;;;;;;0.90;0.90;;;;;;;;;;4963403;28;20039;-77
2023/07/02 06:42:35;;;;;;;1.17;1.08;;;;;;;;;;4966791;28;20035;-78
2023/07/02 06:45:02;;;;;;;1.17;1.08;;;;;;;;;;4966394;28;20022;-77
2023/07/02 06:47:28;;;;;;;0.75;0.75;;;;;;;;;;4966942;28;20058;-77
2023/07/02 06:49:53;;;;;;;1.00;0.88;;;;;;;;;;4967718;28;20389;-77
2023/07/02 06:52:19;;;;;;;0.70;0.70;;;;;;;;;;4968740;28;20038;-76
2023/07/02 06:54:46;;;;;;;0.75;0.75;;;;;;;;;;4969293;28;20034;-77
2023/07/02 06:57:13;;;;;;;1.67;0.70;;;;;;;;;;4964286;28;20050;-76
2023/07/02 06:59:39;;;;;;;1.75;0.70;;;;;;;;;;4967404;28;20449;-76
2023/07/02 07:02:05;;;;;;;0.80;0.70;;;;;;;;;;4963841;28;20031;-76
2023/07/02 07:04:31;;;;;;;0.65;0.65;;;;;;;;;;4968354;28;20089;-76
2023/07/02 07:06:56;;;;;;;0.90;0.80;;;;;;;;;;4964133;28;20054;-76
2023/07/02 07:09:23;;;;;;;0.80;0.80;;;;;;;;;;4969159;28;20030;-76
2023/07/02 07:11:49;;;;;;;0.88;0.85;;;;;;;;;;4967034;28;20041;-77
2023/07/02 07:14:15;;;;;;;1.45;1.00;;;;;;;;;;4969606;28;20031;-76
2023/07/02 07:16:43;;;;;;;1.38;0.80;;;;;;;;;;4968396;28;20039;-77
2023/07/02 07:19:09;;;;;;;0.70;0.70;;;;;;;;;;4968634;28;20030;-77
2023/07/02 07:21:35;;;;;;;2.65;0.80;;;;;;;;;;4973683;28;20031;-77
2023/07/02 07:24:02;;;;;;;0.82;0.77;;;;;;;;;;4970618;28;20097;-77
2023/07/02 07:26:28;;;;;;;0.80;0.80;;;;;;;;;;4963119;28;20105;-76
2023/07/02 07:28:57;;;;;;;0.80;0.80;;;;;;;;;;4964734;28;20019;-77
2023/07/02 07:31:23;;;;;;;1.05;0.77;;;;;;;;;;4966965;28;20011;-78
2023/07/02 07:33:49;;;;;;;1.42;1.02;;;;;;;;;;4971963;28;20027;-79
2023/07/02 07:36:15;;;;;;;1.27;1.00;;;;;;;;;;4973400;28;20030;-78
2023/07/02 07:38:43;;;;;;;0.80;0.80;;;;;;;;;;4970617;28;20057;-80
2023/07/02 07:41:09;;;;;;;1.65;0.90;;;;;;;;;;4973386;28;20042;-78
2023/07/02 07:43:35;;;;;;;1.10;0.80;;;;;;;;;;4971975;28;20027;-78
2023/07/02 07:46:01;;;;;;;0.77;0.77;;;;;;;;;;4973632;28;20030;-80
2023/07/02 07:48:27;;;;;;;1.10;1.00;;;;;;;;;;4969852;28;20049;-79
2023/07/02 07:50:53;;;;;;;1.00;0.90;;;;;;;;;;4969142;28;20747;-79
2023/07/02 07:53:19;;;;;;;0.90;0.90;;;;;;;;;;4973083;28;20019;-78
2023/07/02 07:55:45;;;;;;;0.60;0.60;;;;;;;;;;4971750;28;20561;-79
2023/07/02 07:58:11;;;;;;;1.63;0.98;;;;;;;;;;4972968;28;20027;-78
2023/07/02 08:00:37;;;;;;;1.25;0.90;;;;;;;;;;4971420;28;20049;-78
2023/07/02 08:03:03;;;;;;;1.33;1.00;;;;;;;;;;4973608;28;20031;-77
2023/07/02 08:05:30;;;;;;;1.08;0.90;;;;;;;;;;4967888;28;20038;-78
2023/07/02 08:07:57;;;;;;;1.67;1.27;;;;;;;;;;4969657;28;20398;-78
2023/07/02 08:10:24;;;;;;;0.82;0.82;;;;;;;;;;4969048;28;20275;-80
2023/07/02 08:12:52;;;;;;;1.00;0.95;;;;;;;;;;4971852;28;20025;-79
2023/07/02 08:15:18;;;;;;;1.23;0.88;;;;;;;;;;4967630;28;20486;-80
2023/07/02 08:17:44;;;;;;;1.30;0.93;;;;;;;;;;4973427;28;20039;-79
2023/07/02 08:20:10;;;;;;;0.75;0.73;;;;;;;;;;4970792;28;20061;-78
2023/07/02 08:22:39;;;;;;;1.00;0.90;;;;;;;;;;4968335;28;20030;-79
2023/07/02 08:25:06;;;;;;;2.50;1.20;;;;;;;;;;4969008;28;20129;-79
2023/07/02 08:27:32;;;;;;;0.70;0.70;;;;;;;;;;4970100;28;20033;-80
2023/07/02 08:29:58;;;;;;;1.02;0.93;;;;;;;;;;4969010;28;20105;-80
2023/07/02 08:32:24;;;;;;;1.63;1.00;;;;;;;;;;4969045;28;20018;-79
2023/07/02 08:34:53;;;;;;;1.88;1.05;;;;;;;;;;4971958;28;20019;-79
2023/07/02 08:37:19;;;;;;;1.35;1.05;;;;;;;;;;4966261;28;20030;-78
2023/07/02 08:39:45;;;;;;;1.58;1.05;;;;;;;;;;4971224;28;20669;-78
2023/07/02 08:42:11;;;;;;;1.67;0.93;;;;;;;;;;4970799;28;20405;-79
2023/07/02 08:44:37;;;;;;;1.08;0.85;;;;;;;;;;4969258;28;20031;-78
2023/07/02 08:47:04;;;;;;;1.05;0.80;;;;;;;;;;4968403;28;20034;-79
2023/07/02 08:49:33;;;;;;;0.80;0.80;;;;;;;;;;4980240;28;20084;-77
2023/07/02 08:51:59;;;;;;;2.35;1.25;;;;;;;;;;4970417;28;20034;-77
2023/07/02 08:54:25;;;;;;;1.17;1.05;;;;;;;;;;4975461;28;20385;-77
2023/07/02 08:56:51;;;;;;;1.50;1.10;;;;;;;;;;4964899;28;20027;-77
2023/07/02 08:59:17;;;;;;;0.93;0.82;;;;;;;;;;4964751;28;20474;-78
2023/07/02 09:01:47;;;;;;;1.20;0.77;;;;;;;;;;4961998;28;20034;-78
2023/07/02 09:04:20;;;;;;;1.10;1.00;;;;;;;;;;4964802;28;20225;-82
2023/07/02 09:06:46;;;;;;;0.98;0.90;;;;;;;;;;4964325;28;20042;-76
2023/07/02 09:09:12;;;;;;;1.25;0.95;;;;;;;;;;4964281;28;20110;-78
2023/07/02 09:11:51;;;;;;;2.70;1.20;;;;;;;;;;4968393;28;20023;-76
2023/07/02 09:14:28;;;;;;;1.40;0.95;;;;;;;;;;4970028;28;20038;-80
2023/07/02 09:17:02;;;;;;;2.95;1.58;;;;;;;;;;4974299;28;20543;-77
2023/07/02 09:19:28;;;;;;;2.75;1.35;;;;;;;;;;4970864;28;20147;-77
2023/07/02 09:21:55;;;;;;;1.55;1.10;;;;;;;;;;4965657;28;20030;-78
2023/07/02 09:24:24;;;;;;;1.55;1.27;;;;;;;;;;4967057;28;20050;-78
2023/07/02 09:26:53;;;;;;;1.15;1.00;;;;;;;;;;4969570;28;20037;-79
2023/07/02 09:29:22;;;;;;;1.98;1.45;;;;;;;;;;4969887;28;20572;-77
2023/07/02 09:31:48;;;;;;;1.60;1.20;;;;;;;;;;4968231;28;20425;-76
2023/07/02 09:34:15;;;;;;;1.67;1.10;;;;;;;;;;4969889;28;20478;-78
2023/07/02 09:36:41;;;;;;;4.45;1.50;;;;;;;;;;4966781;28;20100;-77
2023/07/02 09:39:08;;;;;;;2.17;1.20;;;;;;;;;;4968304;28;20041;-77
2023/07/02 09:41:34;;;;;;;1.70;1.10;;;;;;;;;;4968061;28;20445;-77
2023/07/02 09:44:01;;;;;;;1.48;1.27;;;;;;;;;;4965868;28;20027;-79
2023/07/02 09:46:27;;;;;;;2.60;1.48;;;;;;;;;;4967486;28;20125;-80
2023/07/02 09:48:53;;;;;;;2.15;1.45;;;;;;;;;;4968054;28;20109;-77
2023/07/02 09:51:19;;;;;;;1.50;1.00;;;;;;;;;;4964261;28;20081;-76
2023/07/02 09:53:45;;;;;;;3.25;1.50;;;;;;;;;;4970577;28;20034;-78
2023/07/02 09:56:11;;;;;;;1.60;1.00;;;;;;;;;;4968499;28;20027;-74
2023/07/02 09:58:37;;;;;;;5.28;1.98;;;;;;;;;;4964866;28;20027;-78
2023/07/02 10:01:03;;;;;;;2.50;1.25;;;;;;;;;;4967482;28;20490;-79
2023/07/02 10:03:30;;;;;;;1.73;1.40;;;;;;;;;;4962999;28;20034;-79
2023/07/02 10:06:05;;;;;;;1.90;1.30;;;;;;;;;;4968167;28;20130;-76
2023/07/02 10:08:32;;;;;;;4.45;1.75;;;;;;;;;;4965149;28;20114;-80
2023/07/02 10:11:08;;;;;;;3.40;1.50;;;;;;;;;;4967067;28;20015;-79
2023/07/02 10:13:35;;;;;;;2.42;1.45;;;;;;;;;;4968750;28;20042;-76
2023/07/02 10:16:01;;;;;;;2.85;1.60;;;;;;;;;;4969963;28;20027;-75
2023/07/02 10:18:27;;;;;;;3.67;1.52;;;;;;;;;;4970677;28;20034;-77
2023/07/02 10:20:53;;;;;;;3.65;1.40;;;;;;;;;;4963182;28;20082;-76
2023/07/02 10:23:19;;;;;;;2.30;1.52;;;;;;;;;;4965862;28;20027;-76
2023/07/02 10:25:45;;;;;;;2.58;1.13;;;;;;;;;;4965829;28;20064;-76
2023/07/02 10:28:15;;;;;;;2.95;1.67;;;;;;;;;;4962944;28;20043;-77
2023/07/02 10:30:43;;;;;;;3.70;1.50;;;;;;;;;;4964116;28;20078;-83
2023/07/02 10:33:09;;;;;;;2.60;1.55;;;;;;;;;;4962545;28;20489;-75
2023/07/02 10:35:35;;;;;;;1.55;1.30;;;;;;;;;;4963457;28;20031;-75
2023/07/02 10:38:01;;;;;;;4.05;2.15;;;;;;;;;;4969029;28;20074;-77
2023/07/02 10:40:27;;;;;;;2.95;1.90;;;;;;;;;;4963597;28;20101;-77
2023/07/02 10:42:53;;;;;;;2.00;1.33;;;;;;;;;;4967148;28;20038;-77
2023/07/02 10:45:20;;;;;;;5.05;1.60;;;;;;;;;;4967907;28;20505;-76
2023/07/02 10:47:46;;;;;;;1.48;1.20;;;;;;;;;;4961773;28;20039;-82
2023/07/02 10:50:15;;;;;;;5.05;1.67;;;;;;;;;;4957657;28;20037;-77
2023/07/02 10:52:41;;;;;;;1.77;1.45;;;;;;;;;;4966053;28;20031;-77
2023/07/02 10:55:07;;;;;;;2.20;1.67;;;;;;;;;;4968785;28;20050;-77
2023/07/02 10:57:33;;;;;;;3.45;1.60;;;;;;;;;;4972199;28;20034;-77
2023/07/02 11:00:07;;;;;;;2.40;1.70;;;;;;;;;;4961954;28;20035;-78
2023/07/02 11:02:39;;;;;;;3.22;1.35;;;;;;;;;;4963239;28;20563;-77
2023/07/02 11:05:06;;;;;;;2.58;1.35;;;;;;;;;;4968851;28;20091;-79
2023/07/02 11:07:32;;;;;;;1.98;1.23;;;;;;;;;;4971820;28;20692;-77
2023/07/02 11:09:58;;;;;;;4.95;2.00;;;;;;;;;;4977505;28;20070;-77
2023/07/02 11:12:31;;;;;;;1.95;1.20;;;;;;;;;;4974665;28;20026;-78
2023/07/02 11:15:08;;;;;;;2.20;1.77;;;;;;;;;;4966691;28;20011;-77
2023/07/02 11:17:34;;;;;;;1.48;1.00;;;;;;;;;;4969363;28;20042;-78
2023/07/02 11:19:59;;;;;;;2.60;1.52;;;;;;;;;;4971258;28;20501;-79
2023/07/02 11:22:38;;;;;;;1.98;1.70;;;;;;;;;;4971922;28;20041;-79
2023/07/02 11:25:15;;;;;;;2.25;1.73;;;;;;;;;;4972543;28;20029;-79
2023/07/02 11:27:42;;;;;;;4.72;1.70;;;;;;;;;;4964883;28;20036;-80
2023/07/02 11:30:08;;;;;;;6.95;1.92;;;;;;;;;;4958324;28;20117;-80
2023/07/02 11:32:36;;;;;;;10.35;1.63;;;;;;;;;;4971583;28;20027;-79
2023/07/02 11:35:02;;;;;;;2.60;1.77;;;;;;;;;;4977708;28;20025;-79
2023/07/02 11:37:28;;;;;;;3.22;1.98;;;;;;;;;;4970005;28;20943;-79
2023/07/02 11:39:54;;;;;;;3.15;1.73;;;;;;;;;;4962922;28;20019;-79
2023/07/02 11:42:21;;;;;;;3.45;1.90;;;;;;;;;;4968742;28;20031;-79
2023/07/02 11:44:47;;;;;;;5.90;2.60;;;;;;;;;;4963478;28;20606;-79
2023/07/02 11:47:13;;;;;;;4.63;1.95;;;;;;;;;;4971090;28;20050;-79
2023/07/02 11:49:39;;;;;;;4.68;1.77;;;;;;;;;;4968495;28;20049;-79
2023/07/02 11:52:05;;;;;;;4.72;2.15;;;;;;;;;;4969040;28;20038;-78
2023/07/02 11:54:31;;;;;;;5.80;2.05;;;;;;;;;;4967401;28;20018;-79
2023/07/02 11:56:57;;;;;;;6.10;1.65;;;;;;;;;;4969022;28;20557;-78
2023/07/02 11:59:23;;;;;;;3.22;2.00;;;;;;;;;;4969766;28;20106;-79
2023/07/02 12:01:49;;;;;;;5.88;2.28;;;;;;;;;;4969204;28;20485;-78
2023/07/02 12:04:16;;;;;;;4.25;2.28;;;;;;;;;;4971924;28;20050;-79
2023/07/02 12:06:42;;;;;;;4.28;2.22;;;;;;;;;;4970539;28;20863;-83
2023/07/02 12:09:09;;;;;;;6.28;1.73;;;;;;;;;;4975335;28;20043;-76
2023/07/02 12:11:35;;;;;;;5.93;2.63;;;;;;;;;;4967057;28;20027;-76
2023/07/02 12:14:01;;;;;;;4.82;2.28;;;;;;;;;;4961722;28;20038;-76
2023/07/02 12:16:27;;;;;;;4.22;2.17;;;;;;;;;;4965266;28;20018;-78
2023/07/02 12:18:53;;;;;;;3.85;2.20;;;;;;;;;;4966233;28;20037;-76
2023/07/02 12:21:19;;;;;;;6.63;2.05;;;;;;;;;;4956432;28;20069;-75
2023/07/02 12:23:45;;;;;;;4.85;2.00;;;;;;;;;;4966995;28;20035;-76
2023/07/02 12:26:11;;;;;;;4.30;2.30;;;;;;;;;;4962446;28;20504;-75
2023/07/02 12:28:37;;;;;;;2.97;1.83;;;;;;;;;;4973839;28;20026;-75
2023/07/02 12:31:03;;;;;;;4.85;2.45;;;;;;;;;;4961952;28;20058;-75
2023/07/02 12:33:29;;;;;;;7.72;2.28;;;;;;;;;;4969066;28;20105;-75
2023/07/02 12:35:55;;;;;;;5.60;2.08;;;;;;;;;;4969948;28;20023;-75
2023/07/02 12:38:21;;;;;;;2.80;1.95;;;;;;;;;;4967803;28;20042;-76
2023/07/02 12:40:48;;;;;;;3.80;1.92;;;;;;;;;;4968704;28;20394;-75
2023/07/02 12:43:14;;;;;;;10.00;2.47;;;;;;;;;;4971000;28;20023;-76
2023/07/02 12:45:40;;;;;;;4.68;2.08;;;;;;;;;;4970929;28;20045;-75
2023/07/02 12:48:06;;;;;;;5.03;2.25;;;;;;;;;;4965776;28;20038;-76
2023/07/02 12:50:32;;;;;;;4.72;2.40;;;;;;;;;;4967053;28;20114;-74
2023/07/02 12:52:58;;;;;;;4.88;2.45;;;;;;;;;;4970214;28;20018;-75
2023/07/02 12:55:27;;;;;;;3.78;2.17;;;;;;;;;;4968102;28;20037;-78
2023/07/02 12:57:53;;;;;;;5.45;2.38;;;;;;;;;;4967270;28;20027;-77
2023/07/02 13:00:19;;;;;;;5.45;2.33;;;;;;;;;;4967969;28;20035;-74
2023/07/02 13:02:46;;;;;;;4.80;2.33;;;;;;;;;;4970344;28;20027;-75
2023/07/02 13:05:12;;;;;;;2.90;1.92;;;;;;;;;;4969504;28;20027;-75
2023/07/02 13:07:38;;;;;;;9.45;2.45;;;;;;;;;;4968802;28;20069;-75
2023/07/02 13:10:07;;;;;;;3.40;1.80;;;;;;;;;;4966375;28;20035;-75
2023/07/02 13:12:33;;;;;;;2.95;1.85;;;;;;;;;;4969760;28;20111;-76
2023/07/02 13:14:59;;;;;;;5.63;2.47;;;;;;;;;;4969916;28;20397;-75
2023/07/02 13:17:25;;;;;;;3.28;2.20;;;;;;;;;;4971357;28;20031;-75
2023/07/02 13:19:56;;;;;;;7.85;2.47;;;;;;;;;;4967714;28;20046;-75
2023/07/02 13:22:25;;;;;;;4.68;2.38;;;;;;;;;;4970416;28;20031;-75
2023/07/02 13:24:51;;;;;;;7.82;2.65;;;;;;;;;;4968095;28;20070;-75
2023/07/02 13:27:19;;;;;;;7.25;1.95;;;;;;;;;;4967513;28;20038;-75
2023/07/02 13:29:45;;;;;;;3.78;2.25;;;;;;;;;;4967193;28;20027;-75
2023/07/02 13:32:11;;;;;;;5.25;2.20;;;;;;;;;;4968850;28;20073;-75
2023/07/02 13:34:37;;;;;;;3.60;1.92;;;;;;;;;;4968411;28;20117;-75
2023/07/02 13:37:03;;;;;;;3.90;1.88;;;;;;;;;;4966547;28;20081;-75
2023/07/02 13:39:30;;;;;;;3.70;2.03;;;;;;;;;;4966943;28;20033;-75
2023/07/02 13:41:56;;;;;;;4.35;2.35;;;;;;;;;;4969530;28;20478;-75
2023/07/02 13:44:22;;;;;;;2.72;1.92;;;;;;;;;;4969815;28;20102;-75
2023/07/02 13:46:48;;;;;;;6.30;2.30;;;;;;;;;;4969364;28;20770;-74
2023/07/02 13:49:14;;;;;;;2.55;1.75;;;;;;;;;;4967169;28;20069;-74
2023/07/02 13:51:40;;;;;;;3.20;1.95;;;;;;;;;;4965925;28;20023;-75
2023/07/02 13:54:06;;;;;;;3.97;2.70;;;;;;;;;;4960987;28;20038;-74
2023/07/02 13:56:32;;;;;;;7.30;2.72;;;;;;;;;;4969392;28;20054;-75
2023/07/02 13:58:58;;;;;;;10.02;3.20;;;;;;;;;;4966408;28;20449;-74
2023/07/02 14:01:25;;;;;;;8.35;2.47;;;;;;;;;;4968490;28;20038;-76
2023/07/02 14:03:51;;;;;;;5.93;2.63;;;;;;;;;;4967340;28;20042;-75
2023/07/02 14:06:17;;;;;;;5.57;2.70;;;;;;;;;;4968039;28;20047;-74
2023/07/02 14:08:43;;;;;;;3.88;1.92;;;;;;;;;;4966548;28;20094;-83
2023/07/02 14:11:09;;;;;;;7.72;2.20;;;;;;;;;;4964861;28;20417;-82
2023/07/02 14:13:36;;;;;;;5.38;2.35;;;;;;;;;;4965113;28;20153;-83
2023/07/02 14:16:02;;;;;;;4.20;2.28;;;;;;;;;;4968079;28;20058;-82
2023/07/02 14:18:28;;;;;;;5.63;2.50;;;;;;;;;;4971486;28;20035;-84
2023/07/02 14:20:54;;;;;;;6.80;2.70;;;;;;;;;;4968878;28;20088;-84
2023/07/02 14:23:20;;;;;;;6.20;2.92;;;;;;;;;;4960438;28;20512;-82
2023/07/02 14:25:46;;;;;;;4.20;2.10;;;;;;;;;;4958997;28;20022;-77
2023/07/02 14:28:12;;;;;;;4.38;1.67;;;;;;;;;;4960747;28;20078;-74
2023/07/02 14:30:38;;;;;;;3.92;2.10;;;;;;;;;;4962370;28;20340;-75
2023/07/02 14:33:04;;;;;;;3.97;2.10;;;;;;;;;;4965394;28;20031;-78
2023/07/02 14:35:31;;;;;;;4.03;2.47;;;;;;;;;;4963918;28;20038;-75
2023/07/02 14:37:57;;;;;;;3.83;2.38;;;;;;;;;;4952169;28;20042;-72
2023/07/02 14:40:23;;;;;;;3.33;2.38;;;;;;;;;;4961060;28;20508;-73